Terminal Aerodrome Forecast
Issued by NWS Lake Charles, LA

Home | Current Version | Previous Version | Text Only | Print | Product List | Glossary On
Versions: 1 2 3 4 5 6 7 8 9 10 11 12 13 14 15 16
759
FTUS44 KLCH 300520
TAFARA
TAF
KARA 300520Z 3006/3106 05004KT P6SM FEW050 BKN200 PROB30 3018/3024
      TSRA BKN035CB=

USA.gov is the U.S. government's official web portal to all federal, state and local government web resources and services.